Time;durP1;ratioP1;P1;durP2;ratioP2;P2;SDS_P1;SDS_P2;PMS_P1;PMS_P2;Temp;Humidity;BMP_temperature;BMP_pressure;BME280_temperature;BME280_humidity;BME280_pressure;Samples;Min_cycle;Max_cycle;Signal;HPM_P1;HPM_P2
2021/06/17 00:02:20;;;;;;;15.25;10.27;;;23.60;92.20;;;;;;5077033;28;20021;-77
2021/06/17 00:04:45;;;;;;;12.32;9.68;;;23.60;92.20;;;;;;5093430;28;20409;-77
2021/06/17 00:27:26;;;;;;;12.43;10.23;;;23.60;92.50;;;;;;5113603;28;20037;-78
2021/06/17 00:29:52;;;;;;;11.13;9.77;;;23.60;92.50;;;;;;5113413;28;20054;-77
2021/06/17 00:32:17;;;;;;;13.27;9.60;;;23.50;92.50;;;;;;5094784;28;20023;-77
2021/06/17 00:48:24;;;;;;;12.60;9.75;;;23.40;92.80;;;;;;5113389;28;20385;-76
2021/06/17 00:50:56;;;;;;;14.18;10.20;;;23.40;92.90;;;;;;5112035;28;20553;-77
2021/06/17 00:53:25;;;;;;;14.23;10.70;;;23.40;93.00;;;;;;5093029;28;20355;-77
2021/06/17 00:55:51;;;;;;;12.75;10.55;;;23.40;93.00;;;;;;5092754;28;20213;-77
2021/06/17 00:58:17;;;;;;;11.60;9.70;;;23.40;93.10;;;;;;5074855;28;20028;-76
2021/06/17 01:00:43;;;;;;;13.52;10.25;;;23.40;93.10;;;;;;5092791;28;20477;-77
2021/06/17 01:03:08;;;;;;;13.20;10.90;;;23.30;93.20;;;;;;5112526;28;20432;-77
2021/06/17 01:05:35;;;;;;;12.07;10.05;;;23.30;93.10;;;;;;5094829;28;20016;-77
2021/06/17 01:08:11;;;;;;;12.60;9.18;;;23.40;93.20;;;;;;5095055;28;20027;-77
2021/06/17 01:11:02;;;;;;;13.70;10.40;;;23.30;93.20;;;;;;5113205;28;20028;-77
2021/06/17 01:13:37;;;;;;;13.10;10.10;;;23.40;93.20;;;;;;5106138;28;20476;-77
2021/06/17 01:16:36;;;;;;;13.93;10.23;;;23.40;93.30;;;;;;5113058;28;20069;-77
2021/06/17 01:19:13;;;;;;;10.85;9.43;;;23.40;93.20;;;;;;5105844;28;20035;-77
2021/06/17 01:22:07;;;;;;;10.60;9.50;;;23.40;93.30;;;;;;5113055;28;20346;-77
2021/06/17 01:25:03;;;;;;;14.57;10.13;;;23.40;93.40;;;;;;5092641;28;20485;-77
2021/06/17 01:27:35;;;;;;;11.95;9.63;;;23.40;93.40;;;;;;5092499;28;20111;-77
2021/06/17 01:30:13;;;;;;;10.05;9.02;;;23.40;93.70;;;;;;5112674;28;20074;-77
2021/06/17 01:32:44;;;;;;;11.52;10.20;;;23.40;93.80;;;;;;5112359;28;20024;-77
2021/06/17 01:35:12;;;;;;;14.65;11.48;;;23.30;93.80;;;;;;5113059;28;20068;-77
2021/06/17 01:37:39;;;;;;;12.02;9.57;;;23.30;93.80;;;;;;5112676;28;20062;-77
2021/06/17 01:40:08;;;;;;;11.57;10.32;;;23.30;93.80;;;;;;5092674;28;20065;-77
2021/06/17 01:42:36;;;;;;;14.85;10.30;;;23.30;93.90;;;;;;5092356;28;20407;-77
2021/06/17 01:45:04;;;;;;;15.23;10.50;;;23.30;94.00;;;;;;5100962;28;20030;-77
2021/06/17 01:47:31;;;;;;;14.75;9.93;;;23.30;94.00;;;;;;5112770;28;20036;-77
2021/06/17 01:49:57;;;;;;;11.77;10.32;;;23.20;94.20;;;;;;5112645;28;20054;-77
2021/06/17 01:52:25;;;;;;;15.55;9.90;;;23.20;94.30;;;;;;5112427;28;20084;-77
2021/06/17 01:54:52;;;;;;;15.32;10.93;;;23.20;94.40;;;;;;5112558;28;20020;-77
2021/06/17 01:57:20;;;;;;;12.80;10.55;;;23.20;94.40;;;;;;5112886;28;20032;-77
2021/06/17 01:59:48;;;;;;;12.23;10.40;;;23.20;94.50;;;;;;5112445;28;20024;-76
2021/06/17 02:02:15;;;;;;;13.00;9.98;;;23.20;94.60;;;;;;5115793;28;20046;-77
2021/06/17 02:04:46;;;;;;;14.02;10.82;;;23.20;94.50;;;;;;5116258;28;20088;-77
2021/06/17 02:07:13;;;;;;;11.55;10.13;;;23.20;94.50;;;;;;5116252;28;20526;-77
2021/06/17 02:09:38;;;;;;;14.73;11.02;;;23.10;94.50;;;;;;5115945;28;20098;-76
2021/06/17 02:12:04;;;;;;;14.40;10.82;;;23.10;94.60;;;;;;5115829;28;20161;-77
2021/06/17 02:14:31;;;;;;;14.63;10.65;;;23.10;94.70;;;;;;5116065;28;20069;-76
2021/06/17 02:16:59;;;;;;;13.82;10.45;;;23.00;94.70;;;;;;5116028;28;20518;-77
2021/06/17 02:19:28;;;;;;;16.13;11.52;;;23.00;94.80;;;;;;5115835;28;20103;-77
2021/06/17 02:21:57;;;;;;;13.52;10.93;;;23.00;94.80;;;;;;5115782;28;20028;-77
2021/06/17 02:24:24;;;;;;;13.45;10.55;;;23.00;94.80;;;;;;5115485;28;20073;-77
2021/06/17 02:26:54;;;;;;;13.50;10.70;;;23.00;94.80;;;;;;5115841;28;20040;-77
2021/06/17 02:29:22;;;;;;;14.13;10.23;;;23.00;94.80;;;;;;5097091;28;20078;-77
2021/06/17 02:31:49;;;;;;;12.35;10.55;;;23.00;94.80;;;;;;5115818;28;20024;-77
2021/06/17 02:34:16;;;;;;;11.15;9.50;;;23.00;94.80;;;;;;5097415;28;20031;-77
2021/06/17 02:36:45;;;;;;;17.08;10.25;;;23.00;94.80;;;;;;5115646;28;20024;-77
2021/06/17 02:39:13;;;;;;;13.88;10.60;;;23.00;94.90;;;;;;5115141;28;20418;-77
2021/06/17 02:41:45;;;;;;;11.80;10.45;;;23.00;94.80;;;;;;5115274;28;20073;-77
2021/06/17 02:44:11;;;;;;;16.85;10.40;;;23.00;94.60;;;;;;5115814;28;20416;-77
2021/06/17 02:46:37;;;;;;;12.60;10.60;;;22.90;94.70;;;;;;5097101;28;20042;-77
2021/06/17 02:49:07;;;;;;;13.55;10.45;;;23.00;94.50;;;;;;5115289;28;20512;-77
2021/06/17 02:51:34;;;;;;;13.52;10.02;;;23.00;94.50;;;;;;5115564;28;20057;-77
2021/06/17 02:54:00;;;;;;;15.50;11.45;;;23.00;94.40;;;;;;5096795;28;20411;-77
2021/06/17 02:56:36;;;;;;;12.88;11.00;;;22.90;94.30;;;;;;5115294;28;20051;-77
2021/06/17 02:59:32;;;;;;;11.52;10.13;;;22.90;94.30;;;;;;5114950;28;20034;-77
2021/06/17 03:02:36;;;;;;;12.32;10.35;;;22.90;94.30;;;;;;5114901;28;20127;-77
2021/06/17 03:05:12;;;;;;;13.15;10.73;;;22.90;94.30;;;;;;5081396;28;20130;-77
2021/06/17 03:07:46;;;;;;;11.50;9.95;;;22.80;94.40;;;;;;5096780;28;20016;-77
2021/06/17 03:10:13;;;;;;;15.02;10.98;;;22.90;94.40;;;;;;5114941;28;20058;-77
2021/06/17 03:12:44;;;;;;;11.48;10.15;;;22.80;94.30;;;;;;5114194;28;20020;-77
2021/06/17 03:15:10;;;;;;;16.08;10.40;;;22.90;94.40;;;;;;5114631;28;20027;-77
2021/06/17 03:17:43;;;;;;;12.15;10.05;;;22.90;94.20;;;;;;5114878;28;20135;-77
2021/06/17 03:20:10;;;;;;;15.35;10.85;;;22.90;94.20;;;;;;5094360;28;20115;-77
2021/06/17 03:22:38;;;;;;;11.25;10.05;;;22.90;94.30;;;;;;5114772;28;20085;-77
2021/06/17 03:25:09;;;;;;;11.25;10.15;;;22.80;94.50;;;;;;5113795;28;20458;-77
2021/06/17 03:27:36;;;;;;;16.67;11.73;;;22.80;94.40;;;;;;5082393;28;20108;-77
2021/06/17 03:30:05;;;;;;;15.77;11.50;;;22.80;94.30;;;;;;5094126;28;20424;-77
2021/06/17 03:32:33;;;;;;;15.85;11.27;;;22.80;94.20;;;;;;5094061;28;20097;-77
2021/06/17 03:35:01;;;;;;;17.02;11.30;;;22.70;94.30;;;;;;5094199;28;20400;-77
2021/06/17 03:37:28;;;;;;;12.20;10.98;;;22.80;94.50;;;;;;5094034;28;20150;-77
2021/06/17 03:39:58;;;;;;;11.63;10.35;;;22.70;94.40;;;;;;5094139;28;20024;-77
2021/06/17 03:42:25;;;;;;;13.32;10.82;;;22.70;94.20;;;;;;5109151;28;20057;-77
2021/06/17 03:44:52;;;;;;;15.15;11.68;;;22.70;94.40;;;;;;5095827;28;20126;-77
2021/06/17 03:47:21;;;;;;;13.80;11.50;;;22.60;94.40;;;;;;5114469;28;20120;-77
2021/06/17 03:49:48;;;;;;;14.63;10.95;;;22.60;94.60;;;;;;5095996;28;20024;-77
2021/06/17 03:52:17;;;;;;;13.20;10.77;;;22.60;94.60;;;;;;5096094;28;20023;-77
2021/06/17 03:54:47;;;;;;;12.23;10.52;;;22.60;94.70;;;;;;5095748;28;20012;-76
2021/06/17 03:57:14;;;;;;;14.77;11.43;;;22.50;94.70;;;;;;5095783;28;20032;-77
2021/06/17 03:59:42;;;;;;;12.02;10.82;;;22.50;94.80;;;;;;5114220;28;20102;-77
2021/06/17 04:02:09;;;;;;;12.32;10.93;;;22.60;94.80;;;;;;5095643;28;20357;-77
2021/06/17 04:04:36;;;;;;;15.98;11.18;;;22.60;94.80;;;;;;5113944;28;20029;-77
2021/06/17 04:07:06;;;;;;;14.95;10.30;;;22.60;94.70;;;;;;5113992;28;20047;-77
2021/06/17 04:09:35;;;;;;;12.50;11.07;;;22.60;94.80;;;;;;5113968;28;20429;-77
2021/06/17 04:12:12;;;;;;;13.13;11.25;;;22.60;94.80;;;;;;5113683;28;20369;-77
2021/06/17 04:14:44;;;;;;;17.15;11.20;;;22.60;94.90;;;;;;5113709;28;20024;-77
2021/06/17 04:17:13;;;;;;;14.88;11.82;;;22.50;95.10;;;;;;5113730;28;20024;-77
2021/06/17 04:19:42;;;;;;;13.85;11.57;;;22.40;95.30;;;;;;5113911;28;20015;-77
2021/06/17 04:22:10;;;;;;;15.10;10.85;;;22.40;95.50;;;;;;5113784;28;20020;-77
2021/06/17 04:24:41;;;;;;;13.77;11.50;;;22.40;95.60;;;;;;5112667;28;20381;-77
2021/06/17 04:27:08;;;;;;;16.38;11.85;;;22.40;95.50;;;;;;5113945;28;20477;-77
2021/06/17 04:29:38;;;;;;;14.43;11.35;;;22.40;95.60;;;;;;5113651;28;20044;-77
2021/06/17 04:32:14;;;;;;;13.57;10.07;;;22.40;95.70;;;;;;5113960;28;20012;-77
2021/06/17 04:34:42;;;;;;;17.58;11.85;;;22.50;95.80;;;;;;5095324;28;20407;-77
2021/06/17 04:37:11;;;;;;;18.88;12.15;;;22.50;95.80;;;;;;5113445;28;20106;-77
2021/06/17 04:39:38;;;;;;;13.80;11.43;;;22.50;95.80;;;;;;5113833;28;20098;-77
2021/06/17 04:42:04;;;;;;;11.70;10.48;;;22.60;95.80;;;;;;5104370;28;20129;-77
2021/06/17 04:44:30;;;;;;;20.02;11.57;;;22.60;95.90;;;;;;5113028;28;20094;-77
2021/06/17 04:46:58;;;;;;;14.90;11.30;;;22.60;95.80;;;;;;5113363;28;20041;-77
2021/06/17 04:49:25;;;;;;;14.73;11.52;;;22.60;95.70;;;;;;5094922;28;20530;-76
2021/06/17 04:51:53;;;;;;;14.68;11.50;;;22.60;95.70;;;;;;5113271;28;20452;-77
2021/06/17 04:54:19;;;;;;;14.30;11.25;;;22.70;95.80;;;;;;5112892;28;20028;-77
2021/06/17 04:56:46;;;;;;;14.73;11.60;;;22.70;95.90;;;;;;5112980;28;20031;-77
2021/06/17 04:59:12;;;;;;;17.75;11.18;;;22.70;95.70;;;;;;5113407;28;20043;-77
2021/06/17 05:01:40;;;;;;;17.05;12.60;;;22.70;95.70;;;;;;5110741;28;20548;-77
2021/06/17 05:04:07;;;;;;;14.75;11.38;;;22.80;95.90;;;;;;5103716;28;20024;-77
2021/06/17 05:06:36;;;;;;;16.65;12.35;;;22.70;96.00;;;;;;5091411;28;20523;-76
2021/06/17 05:11:47;;;;;;;15.63;11.68;;;22.70;96.10;;;;;;5113492;28;20042;-77
2021/06/17 05:14:14;;;;;;;16.40;11.18;;;22.80;96.20;;;;;;5094614;28;20481;-77
2021/06/17 05:16:40;;;;;;;16.35;10.77;;;22.80;96.10;;;;;;5112654;28;20035;-77
2021/06/17 05:19:05;;;;;;;14.23;11.23;;;22.90;96.20;;;;;;5112842;28;20106;-77
2021/06/17 05:21:31;;;;;;;13.43;10.55;;;22.90;96.20;;;;;;5112901;28;20027;-77
2021/06/17 05:23:59;;;;;;;12.85;11.55;;;22.90;96.30;;;;;;5107625;28;20020;-77
2021/06/17 05:26:27;;;;;;;15.70;10.88;;;22.90;96.40;;;;;;5093383;28;20081;-77
2021/06/17 05:28:54;;;;;;;19.33;11.57;;;22.90;96.60;;;;;;5111749;28;20173;-77
2021/06/17 05:31:23;;;;;;;15.10;11.40;;;23.00;96.60;;;;;;5091719;28;20054;-76
2021/06/17 05:33:49;;;;;;;20.20;11.10;;;23.00;96.70;;;;;;5091960;28;20020;-76
2021/06/17 05:36:15;;;;;;;15.73;11.07;;;23.00;96.80;;;;;;5095556;28;20054;-76
2021/06/17 05:38:41;;;;;;;15.30;10.38;;;23.00;96.80;;;;;;5094972;28;20024;-76
2021/06/17 05:41:07;;;;;;;14.30;11.85;;;23.10;96.90;;;;;;5082332;28;20465;-77
2021/06/17 05:43:33;;;;;;;11.88;10.68;;;23.10;97.10;;;;;;5098045;28;20023;-76
2021/06/17 05:46:00;;;;;;;16.00;11.82;;;23.10;97.00;;;;;;5098187;28;20510;-77
2021/06/17 05:48:26;;;;;;;12.40;10.65;;;23.20;97.30;;;;;;5116622;28;20077;-76
2021/06/17 05:50:51;;;;;;;12.13;10.70;;;23.30;97.20;;;;;;5116562;28;20028;-76
2021/06/17 05:53:17;;;;;;;13.27;10.48;;;23.30;97.20;;;;;;5116246;28;20024;-76
2021/06/17 05:55:43;;;;;;;13.23;10.55;;;23.40;97.50;;;;;;5116494;28;20031;-76
2021/06/17 05:58:11;;;;;;;17.05;10.18;;;23.40;97.80;;;;;;5097740;28;20073;-76
2021/06/17 06:00:37;;;;;;;15.35;11.45;;;23.40;98.00;;;;;;5097575;28;20058;-76
2021/06/17 06:03:03;;;;;;;11.95;10.43;;;23.50;97.70;;;;;;5116150;28;20059;-77
2021/06/17 06:05:29;;;;;;;15.98;12.10;;;23.50;97.70;;;;;;5116540;28;20031;-77
2021/06/17 06:07:59;;;;;;;17.05;11.23;;;23.60;97.60;;;;;;5116310;28;20024;-77
2021/06/17 06:10:25;;;;;;;14.05;10.25;;;23.60;97.50;;;;;;5116223;28;20020;-77
2021/06/17 06:12:50;;;;;;;14.48;9.88;;;23.70;97.30;;;;;;5097505;28;20024;-77
2021/06/17 06:15:16;;;;;;;27.08;11.25;;;23.80;97.10;;;;;;5115616;28;20078;-77
2021/06/17 06:17:42;;;;;;;20.90;11.27;;;23.90;97.50;;;;;;5116031;28;20046;-77
2021/06/17 06:20:08;;;;;;;13.23;9.98;;;23.90;98.00;;;;;;5097688;28;20032;-76
2021/06/17 06:22:34;;;;;;;12.55;10.57;;;24.00;97.70;;;;;;5115611;28;20080;-76
2021/06/17 06:25:00;;;;;;;12.95;10.75;;;24.00;97.70;;;;;;5097209;28;20104;-76
2021/06/17 06:27:26;;;;;;;13.70;10.70;;;24.10;97.40;;;;;;5115868;28;20089;-76
2021/06/17 06:29:52;;;;;;;17.35;10.63;;;24.10;96.90;;;;;;5097457;28;20039;-76
2021/06/17 06:32:17;;;;;;;13.15;10.95;;;24.20;97.10;;;;;;5115453;28;20024;-76
2021/06/17 06:34:43;;;;;;;12.95;10.48;;;24.30;97.10;;;;;;5115603;28;20027;-76
2021/06/17 06:37:09;;;;;;;11.45;10.25;;;24.30;97.10;;;;;;5097579;28;20093;-76
2021/06/17 06:39:34;;;;;;;13.77;11.45;;;24.40;96.90;;;;;;5115888;28;20019;-76
2021/06/17 06:42:00;;;;;;;17.60;12.00;;;24.40;96.70;;;;;;5115358;28;20537;-76
2021/06/17 06:44:27;;;;;;;19.05;11.82;;;24.40;97.10;;;;;;5097402;28;20358;-76
2021/06/17 06:46:54;;;;;;;17.98;11.40;;;24.50;97.10;;;;;;5114860;28;20024;-76
2021/06/17 06:49:20;;;;;;;15.18;13.02;;;24.50;96.80;;;;;;5115437;28;20098;-76
2021/06/17 06:51:45;;;;;;;15.40;13.52;;;24.60;97.60;;;;;;5097034;28;20055;-76
2021/06/17 06:54:11;;;;;;;20.60;12.90;;;24.60;96.90;;;;;;5115391;28;20020;-76
2021/06/17 06:56:38;;;;;;;18.58;12.85;;;24.60;96.30;;;;;;5115368;28;20027;-76
2021/06/17 06:59:05;;;;;;;17.98;12.70;;;24.60;95.90;;;;;;5115236;28;20385;-76
2021/06/17 07:01:32;;;;;;;18.02;12.40;;;24.60;95.50;;;;;;5115220;28;20031;-76
2021/06/17 07:03:58;;;;;;;23.77;13.88;;;24.60;95.70;;;;;;5115191;28;20564;-76
2021/06/17 07:06:24;;;;;;;17.25;12.35;;;24.60;96.40;;;;;;5106089;28;20061;-77
2021/06/17 07:08:50;;;;;;;18.45;13.15;;;24.60;96.60;;;;;;5097219;28;20897;-77
2021/06/17 07:11:15;;;;;;;22.13;13.20;;;24.60;96.70;;;;;;5087218;28;20019;-77
2021/06/17 07:13:41;;;;;;;16.23;13.20;;;24.70;96.60;;;;;;5083117;28;20031;-76
2021/06/17 07:16:07;;;;;;;24.17;14.23;;;24.70;96.70;;;;;;5111831;28;20028;-76
2021/06/17 07:18:33;;;;;;;15.77;13.07;;;24.70;96.60;;;;;;5109673;28;20473;-77
2021/06/17 07:20:59;;;;;;;17.55;13.32;;;24.70;97.20;;;;;;5107795;28;20024;-78
2021/06/17 07:23:27;;;;;;;17.67;13.18;;;24.70;97.20;;;;;;5100089;28;20052;-77
2021/06/17 07:25:53;;;;;;;19.65;13.65;;;24.80;96.90;;;;;;5081734;28;20103;-77
2021/06/17 07:28:19;;;;;;;18.42;12.90;;;24.80;97.10;;;;;;5098665;28;20048;-77
2021/06/17 07:30:45;;;;;;;15.85;12.57;;;24.80;96.90;;;;;;5097547;28;20022;-77
2021/06/17 07:33:11;;;;;;;17.05;12.95;;;24.90;96.40;;;;;;5074140;28;20028;-77
2021/06/17 07:35:37;;;;;;;19.38;13.23;;;25.00;96.90;;;;;;5105291;28;20024;-77
2021/06/17 07:38:03;;;;;;;18.60;12.95;;;24.90;96.30;;;;;;5109529;28;20869;-77
2021/06/17 07:40:29;;;;;;;18.92;13.32;;;25.00;96.60;;;;;;5084142;28;20026;-77
2021/06/17 07:42:55;;;;;;;19.20;13.20;;;25.00;96.30;;;;;;5074152;28;20028;-77
2021/06/17 07:45:23;;;;;;;14.93;12.55;;;25.00;96.00;;;;;;5095896;28;20492;-77
2021/06/17 07:47:49;;;;;;;14.43;11.98;;;25.00;95.90;;;;;;5083623;28;20119;-77
2021/06/17 07:50:15;;;;;;;15.32;12.38;;;25.00;95.20;;;;;;5076382;28;20503;-76
2021/06/17 07:52:42;;;;;;;16.65;11.88;;;25.00;95.60;;;;;;5097087;28;20028;-77
2021/06/17 07:55:08;;;;;;;14.32;11.65;;;25.10;95.80;;;;;;5095381;28;20024;-77
2021/06/17 07:57:34;;;;;;;13.73;11.18;;;25.30;95.10;;;;;;5097542;28;20094;-77
2021/06/17 08:00:00;;;;;;;12.45;10.95;;;25.30;94.40;;;;;;5104560;28;20583;-77
2021/06/17 08:02:26;;;;;;;16.02;10.60;;;25.40;93.60;;;;;;5092503;28;20020;-77
2021/06/17 08:04:52;;;;;;;19.15;12.18;;;25.40;94.40;;;;;;5108961;28;20035;-77
2021/06/17 08:07:18;;;;;;;16.70;12.32;;;25.50;95.00;;;;;;5076537;28;20645;-76
2021/06/17 08:09:44;;;;;;;13.75;11.63;;;25.60;95.40;;;;;;5102988;28;20702;-77
2021/06/17 08:12:10;;;;;;;20.42;12.10;;;25.70;95.50;;;;;;5107716;28;20044;-76
2021/06/17 08:14:35;;;;;;;16.63;12.18;;;25.70;95.20;;;;;;5101485;28;20409;-76
2021/06/17 08:17:01;;;;;;;15.73;11.70;;;25.70;95.30;;;;;;5101220;28;20068;-76
2021/06/17 08:19:31;;;;;;;18.83;11.63;;;25.80;95.60;;;;;;5100941;28;20646;-76
2021/06/17 08:22:10;;;;;;;11.95;10.68;;;25.90;95.30;;;;;;5091249;28;20016;-76
2021/06/17 08:24:37;;;;;;;13.80;10.30;;;25.90;94.70;;;;;;5101848;28;20019;-76
2021/06/17 08:27:05;;;;;;;13.88;11.95;;;26.00;93.80;;;;;;5082247;28;20128;-76
2021/06/17 08:29:40;;;;;;;16.92;10.18;;;26.00;93.90;;;;;;5097961;28;20044;-76
2021/06/17 08:32:08;;;;;;;13.95;10.95;;;26.10;93.00;;;;;;5105025;28;20080;-76
2021/06/17 08:34:34;;;;;;;16.38;11.43;;;26.10;93.10;;;;;;5095068;28;20047;-76
2021/06/17 08:37:00;;;;;;;15.82;11.85;;;26.10;93.10;;;;;;5102002;28;20073;-76
2021/06/17 08:39:28;;;;;;;13.15;9.88;;;26.20;92.30;;;;;;5099079;28;20020;-76
2021/06/17 08:41:54;;;;;;;13.23;11.18;;;26.20;92.10;;;;;;5110577;28;20036;-76
2021/06/17 08:44:20;;;;;;;16.83;11.18;;;26.30;92.60;;;;;;5093009;28;20020;-75
2021/06/17 08:46:46;;;;;;;17.50;11.50;;;26.30;92.70;;;;;;5100061;28;20362;-75
2021/06/17 08:49:15;;;;;;;13.07;11.10;;;26.20;92.30;;;;;;5102248;28;20461;-75
2021/06/17 08:51:41;;;;;;;20.60;11.05;;;26.10;92.40;;;;;;5111054;28;20500;-75
2021/06/17 08:54:07;;;;;;;14.55;10.70;;;26.20;92.40;;;;;;5102871;28;20529;-75
2021/06/17 08:56:34;;;;;;;17.38;10.85;;;26.20;92.30;;;;;;5087738;28;20032;-76
2021/06/17 08:59:00;;;;;;;13.90;10.52;;;26.20;92.30;;;;;;5103077;28;20059;-77
2021/06/17 09:01:26;;;;;;;14.80;9.65;;;26.30;93.30;;;;;;5086925;28;20028;-77
2021/06/17 09:03:54;;;;;;;15.48;10.77;;;26.40;93.90;;;;;;5077770;28;20121;-77
2021/06/17 09:06:23;;;;;;;16.02;12.15;;;26.60;93.40;;;;;;5083369;28;20024;-77
2021/06/17 09:09:03;;;;;;;18.60;11.30;;;26.70;92.80;;;;;;5089885;28;20048;-77
2021/06/17 09:11:29;;;;;;;14.18;11.00;;;26.80;92.80;;;;;;5107371;28;20016;-77
2021/06/17 09:14:18;;;;;;;18.45;10.32;;;26.90;93.10;;;;;;5106422;28;20362;-77
2021/06/17 09:17:03;;;;;;;14.60;10.63;;;27.00;92.80;;;;;;5100136;28;20028;-77
2021/06/17 09:19:44;;;;;;;17.30;10.60;;;27.00;90.90;;;;;;5114024;28;20031;-77
2021/06/17 09:22:12;;;;;;;13.88;9.82;;;27.00;90.40;;;;;;5109591;28;20553;-77
2021/06/17 09:24:40;;;;;;;18.92;11.43;;;27.00;90.20;;;;;;5106676;28;20012;-77
2021/06/17 09:27:24;;;;;;;16.13;10.52;;;27.00;90.50;;;;;;5094288;28;20114;-77
2021/06/17 09:29:56;;;;;;;16.38;10.10;;;27.30;92.10;;;;;;5102178;28;20040;-77
2021/06/17 09:32:23;;;;;;;;;;;27.40;91.10;;;;;;5086201;28;20081;-78
2021/06/17 09:34:49;;;;;;;14.32;10.05;;;27.40;88.80;;;;;;5094076;28;19912;-78
2021/06/17 09:37:37;;;;;;;18.10;9.77;;;27.40;88.60;;;;;;5113604;28;20489;-77
2021/06/17 09:40:24;;;;;;;12.55;10.32;;;27.50;88.40;;;;;;5101818;28;20024;-77
2021/06/17 09:42:51;;;;;;;12.50;8.70;;;27.50;88.30;;;;;;5111764;28;20046;-77
2021/06/17 09:45:24;;;;;;;15.32;9.70;;;27.50;87.40;;;;;;5108027;28;20028;-77
2021/06/17 09:47:50;;;;;;;15.18;10.20;;;27.60;89.60;;;;;;5110537;28;20353;-77
2021/06/17 09:50:23;;;;;;;14.40;10.18;;;27.60;90.00;;;;;;5103910;28;20095;-77
2021/06/17 09:52:49;;;;;;;16.13;11.55;;;27.60;90.30;;;;;;5109378;28;20036;-78
2021/06/17 09:55:35;;;;;;;17.60;11.48;;;27.70;86.60;;;;;;5111369;28;20023;-77
2021/06/17 09:58:00;;;;;;;18.33;11.07;;;27.80;86.10;;;;;;5085974;28;20044;-77
2021/06/17 10:00:26;;;;;;;13.88;10.48;;;27.80;85.50;;;;;;5086154;28;20023;-77
2021/06/17 10:02:52;;;;;;;12.20;10.27;;;27.80;86.40;;;;;;5103949;28;20110;-77
2021/06/17 10:05:23;;;;;;;14.80;12.77;;;27.90;88.10;;;;;;5100901;28;20066;-77
2021/06/17 10:07:50;;;;;;;14.43;10.20;;;28.00;84.40;;;;;;5106497;28;20077;-77
2021/06/17 10:10:20;;;;;;;15.10;10.40;;;28.10;87.20;;;;;;5103111;28;20262;-77
2021/06/17 10:12:46;;;;;;;12.07;10.05;;;28.20;88.50;;;;;;5103381;28;20064;-77
2021/06/17 10:15:12;;;;;;;16.48;11.43;;;28.30;86.70;;;;;;5106447;28;20035;-77
2021/06/17 10:17:38;;;;;;;13.00;10.68;;;28.40;86.40;;;;;;5103065;28;20080;-77
2021/06/17 10:20:07;;;;;;;13.02;10.90;;;28.50;85.90;;;;;;5107246;28;20431;-77
2021/06/17 10:22:36;;;;;;;18.40;11.07;;;28.60;84.70;;;;;;5103220;28;20505;-77
2021/06/17 10:25:04;;;;;;;13.82;11.05;;;28.60;82.90;;;;;;5102979;28;20024;-77
2021/06/17 10:27:42;;;;;;;14.30;10.73;;;28.70;83.30;;;;;;5110901;28;20016;-76
2021/06/17 10:30:11;;;;;;;15.55;9.75;;;28.60;83.10;;;;;;5086759;28;20039;-76
2021/06/17 10:32:43;;;;;;;17.20;11.63;;;28.70;86.00;;;;;;5099867;28;20027;-77
2021/06/17 10:35:09;;;;;;;12.40;9.85;;;28.80;84.70;;;;;;5102521;28;20047;-77
2021/06/17 10:37:49;;;;;;;11.93;9.27;;;29.00;83.90;;;;;;5094822;28;20028;-77
2021/06/17 10:40:14;;;;;;;11.88;9.52;;;29.10;79.50;;;;;;5096214;28;20035;-77
2021/06/17 10:42:41;;;;;;;10.68;8.85;;;29.10;79.80;;;;;;5097072;28;20024;-77
2021/06/17 10:45:07;;;;;;;11.57;8.82;;;29.20;80.60;;;;;;5103378;28;20032;-76
2021/06/17 10:47:58;;;;;;;13.90;10.27;;;29.30;79.50;;;;;;5080514;28;20069;-76
2021/06/17 10:50:48;;;;;;;9.18;8.20;;;29.10;77.10;;;;;;5076746;28;20393;-76
2021/06/17 10:53:22;;;;;;;10.50;9.45;;;29.20;78.20;;;;;;5091783;28;20028;-76
2021/06/17 10:55:54;;;;;;;9.45;8.55;;;29.20;80.30;;;;;;5083782;28;20035;-76
2021/06/17 10:58:42;;;;;;;8.20;7.45;;;29.50;81.90;;;;;;5082999;28;20076;-76
2021/06/17 11:01:33;;;;;;;8.77;7.80;;;29.70;81.70;;;;;;5088186;28;20035;-76
2021/06/17 11:04:01;;;;;;;11.27;9.40;;;29.80;81.10;;;;;;5079759;28;20266;-76
2021/06/17 11:06:52;;;;;;;10.40;8.07;;;29.90;79.00;;;;;;5083500;28;20034;-76
2021/06/17 11:09:47;;;;;;;12.40;9.75;;;30.00;76.40;;;;;;5097481;28;20104;-76
2021/06/17 11:12:19;;;;;;;13.32;9.07;;;30.10;78.30;;;;;;5103981;28;20106;-76
2021/06/17 11:14:50;;;;;;;13.27;8.80;;;30.10;72.70;;;;;;5080185;28;20415;-76
2021/06/17 11:20:10;;;;;;;9.13;7.00;;;29.90;73.60;;;;;;5101996;28;20077;-76
2021/06/17 11:22:48;;;;;;;9.02;7.85;;;30.00;73.20;;;;;;5084160;28;20016;-75
2021/06/17 11:25:17;;;;;;;14.50;8.63;;;30.10;73.40;;;;;;5101189;28;20016;-76
2021/06/17 11:28:03;;;;;;;10.43;8.07;;;30.00;73.00;;;;;;5083675;28;20027;-76
2021/06/17 11:30:38;;;;;;;8.60;7.80;;;30.20;74.80;;;;;;5102031;28;20509;-75
2021/06/17 11:33:16;;;;;;;8.70;7.90;;;30.30;74.60;;;;;;5108601;28;20022;-75
2021/06/17 11:35:45;;;;;;;8.82;7.30;;;30.30;74.30;;;;;;5086871;28;20036;-76
2021/06/17 11:38:11;;;;;;;8.02;7.18;;;30.40;72.10;;;;;;5068299;28;20104;-76
2021/06/17 11:40:37;;;;;;;9.10;8.20;;;30.60;72.50;;;;;;5101877;28;20555;-75
2021/06/17 11:43:04;;;;;;;10.93;7.88;;;30.60;72.40;;;;;;5084821;28;20519;-75
2021/06/17 11:45:37;;;;;;;8.35;7.43;;;30.60;71.10;;;;;;5089269;28;20031;-75
2021/06/17 11:48:07;;;;;;;8.43;7.63;;;30.70;70.50;;;;;;5105250;28;20023;-75
2021/06/17 11:50:41;;;;;;;9.43;8.13;;;30.80;71.10;;;;;;5086369;28;20104;-75
2021/06/17 11:53:13;;;;;;;9.73;8.82;;;30.90;71.10;;;;;;5085251;28;20051;-75
2021/06/17 11:55:51;;;;;;;9.57;8.07;;;30.90;69.10;;;;;;5085113;28;20200;-75
2021/06/17 11:58:19;;;;;;;9.60;8.18;;;30.90;71.60;;;;;;5098941;28;20024;-75
2021/06/17 12:00:45;;;;;;;9.38;8.48;;;31.10;72.00;;;;;;5084265;28;20060;-75
2021/06/17 12:03:20;;;;;;;9.23;8.10;;;31.10;70.40;;;;;;5104256;28;20022;-75
2021/06/17 12:05:46;;;;;;;9.20;7.70;;;31.20;71.80;;;;;;5103240;28;20020;-75
2021/06/17 12:08:12;;;;;;;8.55;7.75;;;31.30;69.40;;;;;;5086225;28;20114;-75
2021/06/17 12:10:41;;;;;;;12.77;8.07;;;31.30;66.30;;;;;;5084080;28;20115;-75
2021/06/17 12:13:10;;;;;;;9.75;8.07;;;31.40;66.80;;;;;;5085005;28;20027;-76
2021/06/17 12:15:43;;;;;;;10.48;7.35;;;31.60;68.30;;;;;;5106857;28;20093;-75
2021/06/17 12:18:10;;;;;;;8.35;7.65;;;31.70;69.30;;;;;;5087845;28;20645;-75
2021/06/17 12:20:39;;;;;;;10.75;7.70;;;31.90;70.20;;;;;;5094172;28;20032;-75
2021/06/17 12:23:16;;;;;;;9.80;8.00;;;32.10;69.70;;;;;;5074192;28;20027;-75
2021/06/17 12:26:01;;;;;;;12.45;8.52;;;32.10;66.40;;;;;;5073164;28;20063;-75
2021/06/17 12:28:29;;;;;;;9.57;8.63;;;32.00;65.20;;;;;;5069804;28;20041;-74
2021/06/17 12:31:02;;;;;;;12.55;9.15;;;32.00;65.30;;;;;;5071148;28;20482;-75
2021/06/17 12:33:32;;;;;;;9.70;8.80;;;31.90;64.90;;;;;;5070217;28;20699;-75
2021/06/17 12:36:14;;;;;;;8.05;7.35;;;32.00;65.90;;;;;;5081632;28;20518;-74
2021/06/17 12:38:40;;;;;;;11.32;8.38;;;32.20;66.60;;;;;;5090439;28;20028;-75
2021/06/17 12:41:17;;;;;;;8.27;7.47;;;32.20;63.80;;;;;;5091071;28;20028;-75
2021/06/17 12:43:52;;;;;;;11.10;7.65;;;32.20;64.80;;;;;;5091413;28;20036;-75
2021/06/17 12:46:27;;;;;;;8.23;7.53;;;32.40;64.70;;;;;;5092544;28;20548;-74
2021/06/17 12:54:30;;;;;;;9.70;8.10;;;32.50;64.10;;;;;;5092807;28;20032;-74
2021/06/17 12:57:01;;;;;;;10.50;9.40;;;32.60;63.90;;;;;;5091277;28;20059;-74
2021/06/17 12:59:36;;;;;;;10.13;8.50;;;32.70;62.10;;;;;;5091234;28;20039;-75
2021/06/17 13:02:02;;;;;;;8.93;8.13;;;32.80;63.70;;;;;;5091073;28;20036;-74
2021/06/17 13:04:28;;;;;;;9.35;8.52;;;32.90;63.80;;;;;;5091188;28;20127;-74
2021/06/17 13:06:55;;;;;;;12.45;8.60;;;32.90;62.90;;;;;;5090960;28;20028;-77
2021/06/17 13:09:26;;;;;;;9.35;8.43;;;32.90;63.50;;;;;;5092537;28;20509;-74
2021/06/17 13:12:07;;;;;;;;;;;32.90;63.80;;;;;;5092785;28;20004;-74
2021/06/17 13:14:54;;;;;;;9.80;8.40;;;33.10;63.70;;;;;;5092496;28;19910;-77
2021/06/17 13:17:20;;;;;;;16.63;8.77;;;33.10;61.50;;;;;;5092294;28;20047;-74
2021/06/17 13:19:52;;;;;;;8.25;7.53;;;33.20;61.10;;;;;;5092402;28;20101;-74
2021/06/17 13:22:21;;;;;;;10.60;8.27;;;33.30;61.90;;;;;;5091247;28;20020;-74
2021/06/17 13:24:47;;;;;;;8.57;7.68;;;33.20;62.30;;;;;;5091113;28;20017;-74
2021/06/17 13:27:16;;;;;;;9.27;8.30;;;33.40;63.50;;;;;;5090283;28;20448;-75
2021/06/17 13:30:00;;;;;;;8.60;7.45;;;33.20;61.20;;;;;;5089668;28;20480;-74